createdAt,value
2018-04-07T00:01:49.252Z,20.50
2018-04-07T00:04:17.543Z,20.40
2018-04-07T00:06:45.326Z,20.50
2018-04-07T00:09:12.882Z,20.40
2018-04-07T00:11:40.394Z,20.40
2018-04-07T00:14:08.652Z,20.50
2018-04-07T00:16:36.260Z,20.50
2018-04-07T00:19:03.772Z,20.50
2018-04-07T00:21:31.610Z,20.50
2018-04-07T00:23:59.115Z,20.50
2018-04-07T00:26:27.410Z,20.60
2018-04-07T00:28:55.668Z,20.60
2018-04-07T00:31:23.925Z,20.60
2018-04-07T00:33:51.439Z,20.50
2018-04-07T00:36:18.931Z,20.60
2018-04-07T00:38:46.425Z,20.60
2018-04-07T00:41:14.706Z,20.60
2018-04-07T00:43:42.981Z,20.50
2018-04-07T00:46:11.244Z,20.60
2018-04-07T00:48:38.771Z,20.50
2018-04-07T00:51:06.398Z,20.60
2018-04-07T00:53:33.900Z,20.50
2018-04-07T00:56:01.427Z,20.50
2018-04-07T00:58:28.926Z,20.50
2018-04-07T01:00:56.429Z,20.50
2018-04-07T01:03:23.943Z,20.50
2018-04-07T01:05:51.436Z,20.50
2018-04-07T01:08:18.931Z,20.50
2018-04-07T01:10:46.460Z,20.50
2018-04-07T01:13:13.959Z,20.50
2018-04-07T01:15:41.452Z,20.50
2018-04-07T01:18:09.735Z,20.50
2018-04-07T01:20:38.045Z,20.50
2018-04-07T01:23:05.549Z,20.50
2018-04-07T01:25:33.216Z,20.50
2018-04-07T01:28:00.711Z,20.40
2018-04-07T01:30:28.225Z,20.50
2018-04-07T01:32:55.716Z,20.40
2018-04-07T01:35:23.227Z,20.40
2018-04-07T01:37:50.755Z,20.40
2018-04-07T01:40:18.282Z,20.40
2018-04-07T01:42:46.552Z,20.40
2018-04-07T01:45:14.961Z,20.40
2018-04-07T01:47:42.475Z,20.30
2018-04-07T01:50:10.117Z,20.30
2018-04-07T01:52:37.963Z,20.30
2018-04-07T01:55:05.606Z,20.30
2018-04-07T01:57:33.106Z,20.30
2018-04-07T02:00:00.951Z,20.30
2018-04-07T02:02:28.453Z,20.30
2018-04-07T02:04:56.276Z,20.20
2018-04-07T02:07:23.827Z,20.30
2018-04-07T02:09:51.324Z,20.20
2018-04-07T02:12:18.823Z,20.20
2018-04-07T02:14:46.364Z,20.20
2018-04-07T02:17:14.627Z,20.20
2018-04-07T02:19:42.893Z,20.20
2018-04-07T02:22:10.413Z,20.20
2018-04-07T02:24:37.974Z,20.20
2018-04-07T02:27:05.743Z,20.20
2018-04-07T02:29:33.264Z,20.20
2018-04-07T02:32:01.783Z,20.20
2018-04-07T02:34:29.273Z,20.20
2018-04-07T02:36:56.793Z,20.20
2018-04-07T02:39:24.299Z,20.20
2018-04-07T02:41:52.588Z,20.20
2018-04-07T02:44:20.847Z,20.10
2018-04-07T02:46:48.339Z,20.10
2018-04-07T02:49:15.987Z,20.10
2018-04-07T02:51:44.247Z,20.10
2018-04-07T02:54:11.985Z,20.10
2018-04-07T02:56:39.645Z,20.10
2018-04-07T02:59:07.148Z,20.10
2018-04-07T03:01:35.445Z,20.10
2018-04-07T03:04:02.967Z,20.10
2018-04-07T03:06:30.459Z,20.10
2018-04-07T03:08:58.000Z,20.10
2018-04-07T03:11:26.269Z,20.10
2018-04-07T03:13:54.527Z,20.10
2018-04-07T03:16:22.359Z,20.10
2018-04-07T03:18:49.846Z,20.10
2018-04-07T03:21:17.331Z,20.10
2018-04-07T03:23:45.616Z,20.10
2018-04-07T03:26:14.141Z,20.10
2018-04-07T03:28:41.632Z,20.10
2018-04-07T03:31:09.151Z,20.00
2018-04-07T03:33:36.640Z,20.10
2018-04-07T03:36:04.907Z,20.10
2018-04-07T03:38:32.437Z,20.00
2018-04-07T03:40:59.932Z,20.00
2018-04-07T03:43:28.815Z,20.00
2018-04-07T03:45:57.103Z,20.00
2018-04-07T03:48:24.597Z,20.00
2018-04-07T03:50:52.091Z,20.00
2018-04-07T03:53:19.852Z,20.00
2018-04-07T03:55:47.444Z,20.10
2018-04-07T03:58:15.769Z,20.10
2018-04-07T04:00:43.276Z,20.10
2018-04-07T04:03:10.938Z,20.10
2018-04-07T04:05:38.452Z,20.10
2018-04-07T04:08:06.100Z,20.20
2018-04-07T04:10:33.925Z,20.20
2018-04-07T04:13:01.428Z,20.20
2018-04-07T04:15:28.936Z,20.20
2018-04-07T04:17:56.448Z,20.20
2018-04-07T04:20:23.959Z,20.20
2018-04-07T04:22:51.474Z,20.20
2018-04-07T04:25:18.997Z,20.20
2018-04-07T04:27:47.260Z,20.10
2018-04-07T04:30:15.543Z,20.20
2018-04-07T04:32:43.811Z,20.10
2018-04-07T04:35:11.643Z,20.10
2018-04-07T04:37:39.144Z,20.10
2018-04-07T04:40:07.676Z,20.10
2018-04-07T04:42:35.167Z,20.10
2018-04-07T04:45:02.852Z,20.10
2018-04-07T04:47:31.124Z,20.10
2018-04-07T04:49:59.387Z,20.10
2018-04-07T04:52:26.916Z,20.10
2018-04-07T04:54:54.427Z,20.10
2018-04-07T04:57:22.716Z,20.20
2018-04-07T04:59:50.223Z,20.10
2018-04-07T05:02:17.759Z,20.20
2018-04-07T05:04:45.279Z,20.20
2018-04-07T05:07:13.676Z,20.20
2018-04-07T05:09:41.195Z,20.20
2018-04-07T05:12:08.700Z,20.00
2018-04-07T05:14:36.244Z,19.70
2018-04-07T05:17:03.803Z,19.50
2018-04-07T05:19:31.379Z,19.70
2018-04-07T05:21:58.915Z,20.10
2018-04-07T05:24:27.191Z,20.70
2018-04-07T05:26:55.471Z,21.00
2018-04-07T05:29:23.024Z,21.00
2018-04-07T05:31:51.551Z,20.90
2018-04-07T05:34:19.084Z,20.90
2018-04-07T05:36:46.595Z,20.70
2018-04-07T05:39:14.432Z,20.50
2018-04-07T05:41:42.203Z,20.30
2018-04-07T05:44:09.781Z,20.30
2018-04-07T05:46:37.442Z,20.30
2018-04-07T05:49:05.732Z,20.30
2018-04-07T05:51:34.061Z,20.40
2018-04-07T05:54:01.590Z,20.30
2018-04-07T05:56:31.183Z,20.40
2018-04-07T05:58:59.275Z,20.40
2018-04-07T06:01:26.802Z,20.40
2018-04-07T06:03:54.636Z,20.40
2018-04-07T06:06:22.350Z,20.40
2018-04-07T06:08:50.733Z,20.40
2018-04-07T06:11:19.009Z,20.40
2018-04-07T06:13:47.304Z,20.40
2018-04-07T06:16:14.812Z,20.30
2018-04-07T06:18:42.327Z,20.30
2018-04-07T06:21:09.862Z,20.40
2018-04-07T06:23:38.148Z,20.40
2018-04-07T06:26:05.672Z,20.30
2018-04-07T06:28:33.186Z,20.30
2018-04-07T06:31:00.693Z,20.30
2018-04-07T06:33:28.215Z,20.30
2018-04-07T06:35:55.737Z,20.30
2018-04-07T06:38:23.257Z,20.30
2018-04-07T06:40:52.272Z,20.20
2018-04-07T06:43:20.579Z,20.30
2018-04-07T06:45:48.084Z,20.30
2018-04-07T06:48:15.607Z,20.30
2018-04-07T06:50:43.141Z,20.20
2018-04-07T06:53:10.675Z,20.20
2018-04-07T06:55:38.351Z,20.20
2018-04-07T06:58:06.623Z,20.20
2018-04-07T07:00:35.179Z,20.20
2018-04-07T07:03:02.700Z,20.20
2018-04-07T07:05:30.208Z,20.20
2018-04-07T07:07:58.544Z,20.20
2018-04-07T07:10:26.460Z,20.20
2018-04-07T07:12:56.026Z,20.30
2018-04-07T07:15:24.142Z,20.30
2018-04-07T07:17:52.719Z,20.40
2018-04-07T07:20:20.333Z,20.40
2018-04-07T07:22:47.835Z,20.50
2018-04-07T07:25:15.339Z,20.60
2018-04-07T07:27:42.861Z,20.50
2018-04-07T07:30:11.126Z,20.70
2018-04-07T07:32:38.655Z,20.60
2018-04-07T07:35:06.177Z,20.70
2018-04-07T07:37:33.763Z,20.70
2018-04-07T07:40:01.531Z,20.80
2018-04-07T07:42:29.029Z,20.90
2018-04-07T07:44:56.552Z,21.00
2018-04-07T07:47:24.059Z,21.10
2018-04-07T07:49:52.693Z,21.20
2018-04-07T07:52:20.456Z,21.10
2018-04-07T07:54:47.948Z,21.20
2018-04-07T07:57:15.500Z,21.20
2018-04-07T07:59:43.243Z,21.30
2018-04-07T08:02:10.740Z,21.30
2018-04-07T08:04:39.028Z,21.40
2018-04-07T08:07:07.345Z,21.40
2018-04-07T08:09:35.212Z,21.40
2018-04-07T08:12:02.782Z,21.40
2018-04-07T08:14:30.316Z,21.40
2018-04-07T08:16:57.838Z,21.40
2018-04-07T08:19:25.355Z,21.50
2018-04-07T08:21:52.879Z,21.50
2018-04-07T08:24:20.509Z,21.50
2018-04-07T08:26:48.124Z,21.50
2018-04-07T08:29:15.654Z,21.50
2018-04-07T08:31:43.185Z,21.50
2018-04-07T08:34:10.685Z,21.60
2018-04-07T08:36:38.242Z,21.60
2018-04-07T08:39:06.961Z,21.60
2018-04-07T08:41:34.460Z,21.60
2018-04-07T08:44:02.740Z,21.60
2018-04-07T08:46:31.021Z,21.70
2018-04-07T08:48:59.312Z,21.60
2018-04-07T08:51:27.112Z,21.60
2018-04-07T08:53:54.616Z,21.60
2018-04-07T08:56:22.902Z,21.60
2018-04-07T08:58:51.212Z,21.70
2018-04-07T09:01:18.764Z,21.60
2018-04-07T09:03:46.264Z,21.60
2018-04-07T09:06:13.763Z,21.60
2018-04-07T09:08:41.461Z,21.60
2018-04-07T09:11:08.968Z,21.60
2018-04-07T09:13:37.386Z,21.50
2018-04-07T09:16:04.890Z,21.50
2018-04-07T09:18:32.453Z,21.50
2018-04-07T09:21:00.761Z,21.50
2018-04-07T09:23:28.277Z,21.50
2018-04-07T09:25:56.595Z,21.50
2018-04-07T09:28:24.170Z,21.50
2018-04-07T09:30:51.712Z,21.50
2018-04-07T09:33:19.215Z,21.50
2018-04-07T09:35:46.735Z,21.50
2018-04-07T09:38:14.242Z,21.50
2018-04-07T09:40:42.904Z,21.40
2018-04-07T09:43:10.491Z,21.50
2018-04-07T09:45:38.022Z,21.50
2018-04-07T09:48:05.649Z,21.40
2018-04-07T09:50:33.174Z,21.40
2018-04-07T09:53:02.254Z,21.40
2018-04-07T09:55:29.803Z,21.40
2018-04-07T09:57:57.563Z,21.40
2018-04-07T10:00:25.089Z,21.40
2018-04-07T10:02:58.218Z,21.40
2018-04-07T10:05:25.757Z,21.40
2018-04-07T10:07:53.266Z,21.40
2018-04-07T10:10:20.816Z,21.40
2018-04-07T10:12:48.653Z,21.40
2018-04-07T10:15:16.168Z,21.30
2018-04-07T10:17:44.478Z,21.30
2018-04-07T10:20:11.988Z,21.30
2018-04-07T10:22:39.479Z,21.30
2018-04-07T10:25:07.000Z,21.30
2018-04-07T10:27:34.505Z,21.30
2018-04-07T10:30:02.037Z,21.30
2018-04-07T10:32:30.314Z,21.30
2018-04-07T10:34:58.589Z,21.30
2018-04-07T10:37:26.864Z,21.30
2018-04-07T10:39:55.135Z,21.30
2018-04-07T10:42:23.423Z,21.30
2018-04-07T10:44:51.700Z,21.30
2018-04-07T10:47:19.977Z,21.30
2018-04-07T10:49:47.780Z,21.30
2018-04-07T10:52:15.296Z,21.30
2018-04-07T10:54:43.586Z,21.30
2018-04-07T10:57:11.076Z,21.30
2018-04-07T10:59:38.831Z,21.30
2018-04-07T11:02:06.353Z,21.30
2018-04-07T11:04:34.612Z,21.30
2018-04-07T11:07:02.133Z,21.30
2018-04-07T11:09:29.623Z,21.30
2018-04-07T11:11:57.913Z,21.30
2018-04-07T11:14:26.208Z,21.30
2018-04-07T11:16:53.709Z,21.30
2018-04-07T11:19:21.232Z,21.30
2018-04-07T11:21:48.797Z,21.30
2018-04-07T11:24:16.455Z,21.40
2018-04-07T11:26:43.971Z,21.50
2018-04-07T11:29:11.469Z,21.50
2018-04-07T11:31:39.099Z,21.50
2018-04-07T11:34:07.572Z,21.50
2018-04-07T11:36:35.403Z,21.50
2018-04-07T11:39:03.081Z,21.50
2018-04-07T11:41:30.596Z,21.50
2018-04-07T11:43:58.183Z,21.50
2018-04-07T11:46:25.981Z,21.40
2018-04-07T11:48:53.626Z,21.40
2018-04-07T11:51:21.253Z,21.30
2018-04-07T11:53:48.762Z,21.30
2018-04-07T11:56:16.509Z,21.30
2018-04-07T11:58:45.540Z,21.30
2018-04-07T12:01:13.901Z,21.30
2018-04-07T12:03:42.299Z,21.30
2018-04-07T12:06:09.832Z,21.30
2018-04-07T12:08:37.676Z,21.30
2018-04-07T12:11:05.290Z,21.30
2018-04-07T12:13:33.564Z,21.30
2018-04-07T12:16:01.981Z,21.20
2018-04-07T12:18:29.485Z,21.20
2018-04-07T12:20:57.771Z,21.20
2018-04-07T12:23:26.052Z,21.20
2018-04-07T12:25:54.439Z,21.20
2018-04-07T12:28:22.712Z,21.20
2018-04-07T12:30:51.019Z,21.20
2018-04-07T12:33:18.541Z,21.10
2018-04-07T12:35:46.084Z,21.20
2018-04-07T12:38:13.914Z,21.10
2018-04-07T12:40:41.705Z,21.10
2018-04-07T12:43:09.225Z,21.10
2018-04-07T12:45:37.397Z,21.10
2018-04-07T12:48:04.927Z,21.10
2018-04-07T12:50:33.299Z,21.10
2018-04-07T12:53:01.702Z,21.00
2018-04-07T12:55:29.220Z,21.00
2018-04-07T12:57:56.733Z,21.00
2018-04-07T13:00:24.260Z,21.00
2018-04-07T13:02:52.535Z,20.90
2018-04-07T13:05:20.806Z,20.90
2018-04-07T13:07:49.440Z,20.90
2018-04-07T13:10:16.957Z,20.90
2018-04-07T13:12:45.632Z,20.90
2018-04-07T13:15:13.915Z,20.90
2018-04-07T13:17:42.276Z,20.90
2018-04-07T13:20:10.169Z,20.90
2018-04-07T13:22:37.675Z,20.90
2018-04-07T13:25:05.200Z,20.90
2018-04-07T13:27:32.713Z,20.90
2018-04-07T13:30:00.647Z,20.90
2018-04-07T13:32:28.227Z,20.90
2018-04-07T13:34:55.732Z,20.90
2018-04-07T13:37:23.256Z,20.90
2018-04-07T13:39:51.095Z,20.90
2018-04-07T13:42:18.611Z,20.90
2018-04-07T13:44:46.126Z,20.90
2018-04-07T13:47:13.624Z,20.90
2018-04-07T13:49:42.150Z,20.90
2018-04-07T13:52:09.908Z,20.90
2018-04-07T13:54:37.432Z,20.90
2018-04-07T13:57:04.942Z,20.90
2018-04-07T13:59:32.691Z,20.90
2018-04-07T14:02:00.208Z,20.90
2018-04-07T14:04:28.752Z,20.90
2018-04-07T14:06:56.700Z,20.90
2018-04-07T14:09:24.465Z,20.90
2018-04-07T14:11:52.338Z,21.00
2018-04-07T14:14:19.849Z,20.90
2018-04-07T14:16:48.156Z,21.00
2018-04-07T14:19:15.709Z,21.00
2018-04-07T14:21:43.222Z,21.00
2018-04-07T14:24:10.741Z,21.00
2018-04-07T14:26:38.261Z,21.10
2018-04-07T14:29:06.675Z,21.10
2018-04-07T14:31:34.208Z,21.10
2018-04-07T14:34:01.740Z,21.20
2018-04-07T14:36:30.024Z,21.20
2018-04-07T14:38:58.427Z,21.20
2018-04-07T14:41:26.004Z,21.20
2018-04-07T14:43:53.527Z,21.20
2018-04-07T14:46:21.788Z,21.30
2018-04-07T14:48:49.514Z,21.30
2018-04-07T14:51:17.111Z,21.30
2018-04-07T14:53:45.396Z,21.40
2018-04-07T14:56:13.784Z,21.40
2018-04-07T14:58:42.072Z,21.40
2018-04-07T15:01:10.411Z,21.40
2018-04-07T15:03:38.067Z,21.50
2018-04-07T15:06:05.575Z,21.50
2018-04-07T15:08:33.107Z,21.50
2018-04-07T15:11:01.388Z,21.70
2018-04-07T15:13:29.674Z,21.80
2018-04-07T15:15:57.248Z,21.80
2018-04-07T15:18:24.755Z,21.90
2018-04-07T15:20:52.319Z,21.90
2018-04-07T15:23:20.026Z,22.00
2018-04-07T15:25:47.788Z,22.00
2018-04-07T15:28:15.374Z,22.10
2018-04-07T15:30:42.907Z,22.20
2018-04-07T15:33:10.444Z,22.20
2018-04-07T15:35:38.745Z,22.30
2018-04-07T15:38:06.319Z,22.30
2018-04-07T15:40:33.889Z,22.30
2018-04-07T15:43:01.428Z,22.40
2018-04-07T15:45:28.963Z,22.40
2018-04-07T15:47:57.304Z,22.40
2018-04-07T15:50:24.940Z,22.40
2018-04-07T15:52:52.450Z,22.50
2018-04-07T15:55:20.980Z,22.50
2018-04-07T15:57:48.501Z,22.50
2018-04-07T16:00:16.812Z,22.60
2018-04-07T16:02:44.323Z,22.50
2018-04-07T16:05:12.620Z,22.60
2018-04-07T16:07:40.897Z,22.60
2018-04-07T16:10:08.707Z,22.60
2018-04-07T16:12:36.470Z,22.60
2018-04-07T16:15:04.055Z,22.60
2018-04-07T16:17:31.599Z,22.70
2018-04-07T16:19:59.124Z,22.70
2018-04-07T16:22:26.631Z,22.70
2018-04-07T16:24:54.163Z,22.70
2018-04-07T16:27:21.676Z,22.80
2018-04-07T16:29:49.977Z,22.80
2018-04-07T16:32:17.763Z,22.80
2018-04-07T16:34:45.322Z,22.80
2018-04-07T16:37:12.920Z,22.80
2018-04-07T16:39:41.460Z,22.80
2018-04-07T16:42:08.967Z,22.70
2018-04-07T16:44:37.255Z,22.80
2018-04-07T16:47:05.535Z,22.90
2018-04-07T16:49:33.114Z,22.90
2018-04-07T16:52:00.623Z,22.90
2018-04-07T16:54:32.457Z,22.90
2018-04-07T16:56:59.999Z,22.90
2018-04-07T16:59:28.218Z,22.90
2018-04-07T17:01:55.753Z,22.90
2018-04-07T17:04:23.263Z,22.90
2018-04-07T17:06:52.772Z,22.90
2018-04-07T17:09:23.402Z,22.90
2018-04-07T17:11:50.978Z,22.90
2018-04-07T17:14:18.500Z,22.90
2018-04-07T17:16:46.785Z,22.90
2018-04-07T17:19:14.336Z,22.90
2018-04-07T17:21:41.872Z,22.80
2018-04-07T17:24:10.899Z,22.80
2018-04-07T17:26:39.559Z,22.70
2018-04-07T17:29:07.060Z,22.70
2018-04-07T17:31:34.655Z,22.70
2018-04-07T17:34:02.299Z,22.70
2018-04-07T17:36:29.824Z,22.70
2018-04-07T17:38:58.103Z,22.70
2018-04-07T17:41:25.607Z,22.60
2018-04-07T17:43:53.147Z,22.60
2018-04-07T17:46:20.662Z,22.60
2018-04-07T17:48:48.215Z,22.60
2018-04-07T17:51:15.743Z,22.60
2018-04-07T17:53:43.254Z,22.50
2018-04-07T17:56:12.490Z,22.50
2018-04-07T17:58:40.814Z,22.50
2018-04-07T18:01:09.112Z,22.50
2018-04-07T18:03:36.767Z,22.50
2018-04-07T18:06:05.071Z,22.50
2018-04-07T18:08:32.675Z,22.50
2018-04-07T18:11:00.182Z,22.50
2018-04-07T18:13:27.855Z,22.50
2018-04-07T18:15:55.460Z,22.40
2018-04-07T18:18:23.003Z,22.40
2018-04-07T18:20:50.520Z,22.40
2018-04-07T18:23:18.060Z,22.40
2018-04-07T18:25:46.375Z,22.40
2018-04-07T18:28:13.893Z,22.30
2018-04-07T18:30:42.238Z,22.30
2018-04-07T18:33:09.752Z,22.30
2018-04-07T18:35:37.287Z,22.20
2018-04-07T18:38:05.555Z,22.10
2018-04-07T18:40:33.943Z,22.10
2018-04-07T18:43:02.357Z,22.00
2018-04-07T18:45:29.893Z,22.00
2018-04-07T18:47:57.686Z,22.00
2018-04-07T18:50:25.191Z,22.00
2018-04-07T18:52:53.613Z,21.90
2018-04-07T18:55:21.134Z,21.90
2018-04-07T18:57:49.411Z,21.80
2018-04-07T19:00:17.845Z,21.80
2018-04-07T19:02:45.355Z,21.80
2018-04-07T19:05:13.632Z,21.70
2018-04-07T19:07:41.924Z,21.70
2018-04-07T19:10:09.440Z,21.70
2018-04-07T19:12:36.992Z,21.70
2018-04-07T19:15:04.504Z,21.70
2018-04-07T19:17:32.039Z,21.60
2018-04-07T19:20:00.315Z,21.60
2018-04-07T19:22:28.604Z,21.50
2018-04-07T19:24:56.116Z,21.50
2018-04-07T19:27:23.717Z,21.60
2018-04-07T19:29:52.344Z,21.50
2018-04-07T19:32:19.855Z,21.50
2018-04-07T19:34:48.207Z,21.50
2018-04-07T19:37:15.721Z,21.50
2018-04-07T19:39:43.324Z,21.50
2018-04-07T19:42:10.950Z,21.50
2018-04-07T19:44:38.496Z,21.50
2018-04-07T19:47:06.031Z,21.60
2018-04-07T19:49:34.388Z,21.50
2018-04-07T19:52:01.902Z,21.50
2018-04-07T19:54:29.414Z,21.50
2018-04-07T19:56:56.919Z,21.40
2018-04-07T19:59:24.435Z,21.50
2018-04-07T20:01:52.805Z,21.40
2018-04-07T20:04:20.344Z,21.40
2018-04-07T20:06:48.801Z,21.40
2018-04-07T20:09:16.308Z,21.40
2018-04-07T20:11:44.755Z,21.40
2018-04-07T20:14:12.277Z,21.40
2018-04-07T20:16:40.080Z,21.30
2018-04-07T20:19:07.641Z,21.30
2018-04-07T20:21:35.303Z,21.40
2018-04-07T20:24:02.812Z,21.40
2018-04-07T20:26:30.354Z,21.30
2018-04-07T20:28:58.891Z,21.30
2018-04-07T20:31:26.728Z,21.30
2018-04-07T20:33:54.815Z,21.30
2018-04-07T20:36:23.172Z,21.20
2018-04-07T20:38:50.757Z,21.20
2018-04-07T20:41:18.561Z,21.20
2018-04-07T20:43:46.064Z,21.20
2018-04-07T20:46:13.648Z,21.20
2018-04-07T20:48:41.197Z,21.10
2018-04-07T20:51:08.734Z,21.00
2018-04-07T20:53:36.254Z,21.00
2018-04-07T20:56:04.007Z,20.90
2018-04-07T20:58:31.621Z,20.90
2018-04-07T21:00:59.417Z,20.90
2018-04-07T21:03:27.181Z,20.80
2018-04-07T21:05:54.893Z,20.70
2018-04-07T21:08:23.194Z,20.60
2018-04-07T21:10:50.993Z,20.60
2018-04-07T21:13:18.534Z,20.60
2018-04-07T21:15:46.086Z,20.70
2018-04-07T21:18:14.507Z,20.70
2018-04-07T21:20:42.238Z,20.70
2018-04-07T21:23:09.796Z,20.60
2018-04-07T21:25:37.404Z,20.60
2018-04-07T21:28:04.937Z,20.50
2018-04-07T21:30:32.460Z,20.50
2018-04-07T21:32:59.971Z,20.50
2018-04-07T21:35:27.809Z,20.40
2018-04-07T21:37:55.354Z,20.50
2018-04-07T21:40:23.138Z,20.50
2018-04-07T21:42:50.644Z,20.50
2018-04-07T21:45:19.180Z,20.50
2018-04-07T21:47:46.701Z,20.50
2018-04-07T21:50:14.218Z,20.50
2018-04-07T21:52:41.901Z,20.50
2018-04-07T21:55:10.171Z,20.50
2018-04-07T21:57:38.440Z,20.40
2018-04-07T22:00:06.733Z,20.40
2018-04-07T22:02:35.051Z,20.50
2018-04-07T22:05:02.544Z,20.50
2018-04-07T22:07:30.065Z,20.40
2018-04-07T22:09:57.786Z,20.50
2018-04-07T22:12:26.315Z,20.30
2018-04-07T22:14:53.823Z,20.30
2018-04-07T22:17:22.762Z,20.40
2018-04-07T22:19:51.952Z,20.40
2018-04-07T22:22:19.731Z,20.40
2018-04-07T22:24:47.600Z,20.30
2018-04-07T22:27:15.115Z,20.30
2018-04-07T22:29:43.414Z,20.30
2018-04-07T22:32:10.916Z,20.20
2018-04-07T22:34:39.986Z,20.20
2018-04-07T22:37:07.626Z,20.20
2018-04-07T22:39:35.139Z,20.20
2018-04-07T22:42:02.657Z,20.30
2018-04-07T22:44:30.171Z,20.30
2018-04-07T22:46:58.456Z,20.20
2018-04-07T22:49:26.733Z,20.10
2018-04-07T22:51:55.003Z,20.10
2018-04-07T22:54:23.289Z,20.10
2018-04-07T22:56:51.560Z,20.20
2018-04-07T22:59:20.037Z,20.20
2018-04-07T23:01:48.305Z,20.20
2018-04-07T23:04:16.745Z,20.00
2018-04-07T23:06:44.243Z,20.00
2018-04-07T23:09:12.783Z,19.80
2018-04-07T23:11:40.329Z,19.80
2018-04-07T23:14:07.837Z,19.90
2018-04-07T23:16:35.360Z,19.90
2018-04-07T23:19:02.872Z,19.90
2018-04-07T23:21:30.382Z,19.90
2018-04-07T23:23:57.916Z,19.90
2018-04-07T23:26:25.596Z,19.80
2018-04-07T23:28:53.257Z,19.80
2018-04-07T23:31:20.764Z,19.70
2018-04-07T23:33:49.044Z,19.80
2018-04-07T23:36:17.490Z,19.70
2018-04-07T23:38:45.237Z,19.70
2018-04-07T23:41:12.843Z,19.70
2018-04-07T23:43:41.123Z,19.60
2018-04-07T23:46:09.488Z,19.50
2018-04-07T23:48:37.800Z,19.50
2018-04-07T23:51:05.299Z,19.50
2018-04-07T23:53:32.939Z,19.50
2018-04-07T23:56:00.439Z,19.60
2018-04-07T23:58:27.964Z,19.60
